createdAt,value
2023-04-11T00:00:25.730Z,15.37
2023-04-11T00:02:57.626Z,15.06
2023-04-11T00:05:30.577Z,15.33
2023-04-11T00:08:02.221Z,14.82
2023-04-11T00:10:34.197Z,14.91
2023-04-11T00:13:05.906Z,15.25
2023-04-11T00:15:37.553Z,15.62
2023-04-11T00:18:09.164Z,15.87
2023-04-11T00:20:40.746Z,15.86
2023-04-11T00:23:12.918Z,15.38
2023-04-11T00:25:44.605Z,15.52
2023-04-11T00:28:16.252Z,15.30
2023-04-11T00:30:47.875Z,15.32
2023-04-11T00:33:19.525Z,15.26
2023-04-11T00:35:51.149Z,15.05
2023-04-11T00:38:23.296Z,15.02
2023-04-11T00:40:55.152Z,14.83
2023-04-11T00:43:26.774Z,14.88
2023-04-11T00:45:58.571Z,14.72
2023-04-11T00:48:31.489Z,14.71
2023-04-11T00:51:03.427Z,14.70
2023-04-11T00:53:37.654Z,14.86
2023-04-11T00:56:10.260Z,14.87
2023-04-11T00:58:42.739Z,15.03
2023-04-11T01:01:14.635Z,14.98
2023-04-11T01:03:46.454Z,15.06
2023-04-11T01:06:20.121Z,15.04
2023-04-11T01:08:52.247Z,14.94
2023-04-11T01:11:24.941Z,14.97
2023-04-11T01:13:56.917Z,14.85
2023-04-11T01:16:29.270Z,14.96
2023-04-11T01:19:00.888Z,14.79
2023-04-11T01:21:33.589Z,14.70
2023-04-11T01:24:05.746Z,14.73
2023-04-11T01:26:37.863Z,14.70
2023-04-11T01:29:10.488Z,14.84
2023-04-11T01:31:43.385Z,14.89
2023-04-11T01:34:15.956Z,14.97
2023-04-11T01:37:01.409Z,15.24
2023-04-11T01:39:36.150Z,15.10
2023-04-11T01:42:10.081Z,14.97
2023-04-11T01:44:42.518Z,14.93
2023-04-11T01:47:14.716Z,14.92
2023-04-11T01:49:46.934Z,14.80
2023-04-11T01:52:18.944Z,15.05
2023-04-11T01:54:50.670Z,15.03
2023-04-11T01:57:22.260Z,15.39
2023-04-11T01:59:53.891Z,15.33
2023-04-11T02:02:25.640Z,14.87
2023-04-11T02:04:57.552Z,14.90
2023-04-11T02:07:29.262Z,14.67
2023-04-11T02:10:01.009Z,14.78
2023-04-11T02:12:32.632Z,14.75
2023-04-11T02:15:04.808Z,14.67
2023-04-11T02:17:36.645Z,14.52
2023-04-11T02:20:09.317Z,14.36
2023-04-11T02:22:41.812Z,14.59
2023-04-11T02:25:13.623Z,14.60
2023-04-11T02:27:45.313Z,14.45
2023-04-11T02:30:17.021Z,14.67
2023-04-11T02:32:49.068Z,14.87
2023-04-11T02:35:20.832Z,15.18
2023-04-11T02:37:52.496Z,15.03
2023-04-11T02:40:24.206Z,15.41
2023-04-11T02:42:55.763Z,14.81
2023-04-11T02:45:27.388Z,14.59
2023-04-11T02:47:59.064Z,14.57
2023-04-11T02:50:30.735Z,14.42
2023-04-11T02:53:02.627Z,14.51
2023-04-11T02:55:34.442Z,14.21
2023-04-11T02:58:06.156Z,14.30
2023-04-11T03:00:37.932Z,13.88
2023-04-11T03:03:12.795Z,14.30
2023-04-11T03:05:48.367Z,13.70
2023-04-11T03:08:24.082Z,13.52
2023-04-11T03:10:58.068Z,13.70
2023-04-11T03:13:30.772Z,13.42
2023-04-11T03:16:02.744Z,13.36
2023-04-11T03:18:36.602Z,13.32
2023-04-11T03:21:11.474Z,13.36
2023-04-11T03:23:47.311Z,13.50
2023-04-11T03:26:20.448Z,13.19
2023-04-11T03:28:52.964Z,13.22
2023-04-11T03:31:25.053Z,13.31
2023-04-11T03:33:58.839Z,13.34
2023-04-11T03:36:30.404Z,13.34
2023-04-11T03:39:07.608Z,13.35
2023-04-11T03:41:39.398Z,13.27
2023-04-11T03:44:14.147Z,13.43
2023-04-11T03:46:46.151Z,13.70
2023-04-11T03:49:18.068Z,13.57
2023-04-11T03:51:57.204Z,13.29
2023-04-11T03:54:30.970Z,13.33
2023-04-11T03:57:02.576Z,13.04
2023-04-11T03:59:35.232Z,13.18
2023-04-11T04:02:12.092Z,13.14
2023-04-11T04:04:50.201Z,13.16
2023-04-11T04:07:31.912Z,13.37
2023-04-11T04:10:20.467Z,13.32
2023-04-11T04:12:55.661Z,13.36
2023-04-11T04:15:37.374Z,13.46
2023-04-11T04:18:09.117Z,13.86
2023-04-11T04:20:51.660Z,13.93
2023-04-11T04:23:24.877Z,14.00
2023-04-11T04:26:23.711Z,13.60
2023-04-11T04:29:01.450Z,13.59
2023-04-11T04:31:37.858Z,13.89
2023-04-11T04:34:11.561Z,13.68
2023-04-11T04:36:48.245Z,13.14
2023-04-11T04:39:26.761Z,12.80
2023-04-11T04:42:00.057Z,13.37
2023-04-11T04:44:37.748Z,12.92
2023-04-11T04:47:18.217Z,13.01
2023-04-11T04:49:54.994Z,12.70
2023-04-11T04:52:28.883Z,13.28
2023-04-11T04:55:01.480Z,13.18
2023-04-11T04:57:33.310Z,13.07
2023-04-11T05:00:08.635Z,12.85
2023-04-11T05:02:40.607Z,12.65
2023-04-11T05:05:13.250Z,12.77
2023-04-11T05:07:45.276Z,12.54
2023-04-11T05:10:17.439Z,12.70
2023-04-11T05:12:49.976Z,12.79
2023-04-11T05:15:22.373Z,12.80
2023-04-11T05:17:55.197Z,12.49
2023-04-11T05:20:27.072Z,12.53
2023-04-11T05:22:58.813Z,12.34
2023-04-11T05:25:30.573Z,11.97
2023-04-11T05:28:02.229Z,11.75
2023-04-11T05:30:33.923Z,11.78
2023-04-11T05:33:05.754Z,12.01
2023-04-11T05:35:37.922Z,12.21
2023-04-11T05:38:09.533Z,12.26
2023-04-11T05:40:41.249Z,12.97
2023-04-11T05:43:13.283Z,12.83
2023-04-11T05:45:45.091Z,13.43
2023-04-11T05:48:17.463Z,13.86
2023-04-11T05:50:51.228Z,13.87
2023-04-11T05:53:23.056Z,14.21
2023-04-11T05:55:54.902Z,13.83
2023-04-11T05:58:26.603Z,13.68
2023-04-11T06:00:58.398Z,14.03
2023-04-11T06:03:30.170Z,13.49
2023-04-11T06:06:02.063Z,13.75
2023-04-11T06:08:33.826Z,13.72
2023-04-11T06:11:05.694Z,13.77
2023-04-11T06:13:37.307Z,13.05
2023-04-11T06:16:09.268Z,13.25
2023-04-11T06:18:40.965Z,12.98
2023-04-11T06:21:13.352Z,12.61
2023-04-11T06:23:45.076Z,12.32
2023-04-11T06:26:17.098Z,12.15
2023-04-11T06:28:51.867Z,12.30
2023-04-11T06:31:23.765Z,12.09
2023-04-11T06:33:56.248Z,12.12
2023-04-11T06:36:29.905Z,12.23
2023-04-11T06:39:01.565Z,12.11
2023-04-11T06:41:33.152Z,11.74
2023-04-11T06:44:04.753Z,11.96
2023-04-11T06:46:37.009Z,12.16
2023-04-11T06:49:18.416Z,11.87
2023-04-11T06:51:50.121Z,12.42
2023-04-11T06:54:26.147Z,12.43
2023-04-11T06:56:58.166Z,12.19
2023-04-11T06:59:30.087Z,12.41
2023-04-11T07:02:01.734Z,12.29
2023-04-11T07:04:33.608Z,12.25
2023-04-11T07:07:05.408Z,11.96
2023-04-11T07:09:36.946Z,11.99
2023-04-11T07:12:08.501Z,12.13
2023-04-11T07:14:40.105Z,12.42
2023-04-11T07:17:12.211Z,12.00
2023-04-11T07:19:44.858Z,12.16
2023-04-11T07:22:16.446Z,12.35
2023-04-11T07:24:51.826Z,12.21
2023-04-11T07:27:23.858Z,12.46
2023-04-11T07:29:56.044Z,12.35
2023-04-11T07:32:27.631Z,12.31
2023-04-11T07:34:59.288Z,12.11
2023-04-11T07:37:30.909Z,12.17
2023-04-11T07:40:02.501Z,12.07
2023-04-11T07:42:34.206Z,11.95
2023-04-11T07:45:08.085Z,11.86
2023-04-11T07:47:39.742Z,12.03
2023-04-11T07:50:11.976Z,12.10
2023-04-11T07:52:43.679Z,12.08
2023-04-11T07:55:15.442Z,12.09
2023-04-11T07:57:47.044Z,12.50
2023-04-11T08:00:20.314Z,12.28
2023-04-11T08:02:52.138Z,12.33
2023-04-11T08:05:24.122Z,12.30
2023-04-11T08:07:56.255Z,12.23
2023-04-11T08:10:27.925Z,12.33
2023-04-11T08:12:59.557Z,13.35
2023-04-11T08:15:31.134Z,13.10
2023-04-11T08:18:02.929Z,13.61
2023-04-11T08:20:34.657Z,14.37
2023-04-11T08:23:06.311Z,14.17
2023-04-11T08:25:37.948Z,13.91
2023-04-11T08:28:09.517Z,14.13
2023-04-11T08:30:41.172Z,14.12
2023-04-11T08:33:12.787Z,14.82
2023-04-11T08:35:44.432Z,14.72
2023-04-11T08:38:16.303Z,14.59
2023-04-11T08:40:48.006Z,14.33
2023-04-11T08:43:19.690Z,13.44
2023-04-11T08:45:51.353Z,13.08
2023-04-11T08:48:22.965Z,13.07
2023-04-11T08:50:54.570Z,13.12
2023-04-11T08:53:27.933Z,13.38
2023-04-11T08:55:59.541Z,13.44
2023-04-11T08:58:31.137Z,13.35
2023-04-11T09:01:25.054Z,13.64
2023-04-11T09:03:57.191Z,13.45
2023-04-11T09:06:29.597Z,13.53
2023-04-11T09:09:04.116Z,13.77
2023-04-11T09:11:53.966Z,13.72
2023-04-11T09:14:26.524Z,13.73
2023-04-11T09:17:03.731Z,13.73
2023-04-11T09:19:35.852Z,14.29
2023-04-11T09:22:08.091Z,14.83
2023-04-11T09:24:39.753Z,14.83
2023-04-11T09:27:17.078Z,14.80
2023-04-11T09:29:49.083Z,14.19
2023-04-11T09:32:31.224Z,14.76
2023-04-11T09:35:15.077Z,14.90
2023-04-11T09:37:52.512Z,14.99
2023-04-11T09:40:28.927Z,14.57
2023-04-11T09:43:03.884Z,14.83
2023-04-11T09:45:44.266Z,14.78
2023-04-11T09:48:32.085Z,15.07
2023-04-11T09:51:12.655Z,14.85
2023-04-11T09:53:45.993Z,14.95
2023-04-11T09:56:17.628Z,14.96
2023-04-11T09:58:49.667Z,15.25
2023-04-11T10:01:23.535Z,15.24
2023-04-11T10:03:56.149Z,15.92
2023-04-11T10:06:34.521Z,16.36
2023-04-11T10:09:08.278Z,16.49
2023-04-11T10:11:44.453Z,16.74
2023-04-11T10:14:48.594Z,16.66
2023-04-11T10:17:22.760Z,15.31
2023-04-11T10:19:56.084Z,15.04
2023-04-11T10:22:42.830Z,14.38
2023-04-11T10:25:19.463Z,14.40
2023-04-11T10:27:57.067Z,14.28
2023-04-11T10:30:48.843Z,14.11
2023-04-11T10:33:23.196Z,14.15
2023-04-11T10:36:02.395Z,14.13
2023-04-11T10:38:37.060Z,13.96
2023-04-11T10:41:16.545Z,13.79
2023-04-11T10:43:49.431Z,14.11
2023-04-11T10:46:21.107Z,14.09
2023-04-11T10:49:03.704Z,14.43
2023-04-11T10:51:35.339Z,13.94
2023-04-11T10:54:24.390Z,13.74
2023-04-11T10:56:56.280Z,13.83
2023-04-11T10:59:33.718Z,13.69
2023-04-11T11:02:05.449Z,13.95
2023-04-11T11:04:38.833Z,14.45
2023-04-11T11:07:15.159Z,14.67
2023-04-11T11:09:50.020Z,14.22
2023-04-11T11:12:21.692Z,14.26
2023-04-11T11:14:53.272Z,14.01
2023-04-11T11:17:24.930Z,14.34
2023-04-11T11:19:56.586Z,14.46
2023-04-11T11:22:28.282Z,14.39
2023-04-11T11:25:08.283Z,14.77
2023-04-11T11:27:39.952Z,15.13
2023-04-11T11:30:12.154Z,14.57
2023-04-11T11:32:43.780Z,14.34
2023-04-11T11:35:15.364Z,14.80
2023-04-11T11:37:47.002Z,14.59
2023-04-11T11:40:20.891Z,14.91
2023-04-11T11:42:52.780Z,14.96
2023-04-11T11:48:01.263Z,15.14
2023-04-11T11:50:34.424Z,15.09
2023-04-11T11:53:16.711Z,15.11
2023-04-11T11:55:48.669Z,15.18
2023-04-11T11:58:20.732Z,14.70
2023-04-11T12:00:54.710Z,14.89
2023-04-11T12:03:27.048Z,15.06
2023-04-11T12:05:58.994Z,15.16
2023-04-11T12:08:33.456Z,14.60
2023-04-11T12:11:12.535Z,15.33
2023-04-11T12:13:44.613Z,15.29
2023-04-11T12:16:21.071Z,15.05
2023-04-11T12:18:52.770Z,15.27
2023-04-11T12:21:24.403Z,15.71
2023-04-11T12:23:56.562Z,15.40
2023-04-11T12:26:28.246Z,15.71
2023-04-11T12:28:59.789Z,15.84
2023-04-11T12:31:31.357Z,15.44
2023-04-11T12:34:03.110Z,14.82
2023-04-11T12:36:35.392Z,15.38
2023-04-11T12:39:06.970Z,14.99
2023-04-11T12:41:38.813Z,14.88
2023-04-11T12:44:10.631Z,14.80
2023-04-11T12:46:42.328Z,15.19
2023-04-11T12:49:14.085Z,15.20
2023-04-11T12:51:45.724Z,15.08
2023-04-11T12:54:17.302Z,15.11
2023-04-11T12:56:48.950Z,15.11
2023-04-11T12:59:20.604Z,15.18
2023-04-11T13:01:52.472Z,15.13
2023-04-11T13:04:24.249Z,15.24
2023-04-11T13:06:55.996Z,15.16
2023-04-11T13:09:28.249Z,15.20
2023-04-11T13:12:01.033Z,14.42
2023-04-11T13:14:32.801Z,14.53
2023-04-11T13:17:04.460Z,14.73
2023-04-11T13:19:36.168Z,15.06
2023-04-11T13:22:07.826Z,15.22
2023-04-11T13:24:39.479Z,15.03
2023-04-11T13:27:11.179Z,15.04
2023-04-11T13:29:42.803Z,14.96
2023-04-11T13:32:14.448Z,15.29
2023-04-11T13:34:46.069Z,15.85
2023-04-11T13:37:17.720Z,15.96
2023-04-11T13:39:49.399Z,16.58
2023-04-11T13:42:21.048Z,16.20
2023-04-11T13:44:52.615Z,15.82
2023-04-11T13:47:24.418Z,15.27
2023-04-11T13:49:55.990Z,15.45
2023-04-11T13:52:27.514Z,15.01
2023-04-11T13:54:59.155Z,14.87
2023-04-11T13:57:30.805Z,14.43
2023-04-11T14:00:02.443Z,15.06
2023-04-11T14:02:36.541Z,14.64
2023-04-11T14:05:09.432Z,14.77
2023-04-11T14:07:41.294Z,14.97
2023-04-11T14:10:12.929Z,15.32
2023-04-11T14:12:44.606Z,15.37
2023-04-11T14:15:16.426Z,14.56
2023-04-11T14:17:48.190Z,14.49
2023-04-11T14:20:20.122Z,14.83
2023-04-11T14:22:52.236Z,15.19
2023-04-11T14:25:23.856Z,14.61
2023-04-11T14:27:55.544Z,14.45
2023-04-11T14:30:27.432Z,15.64
2023-04-11T14:32:59.190Z,15.23
2023-04-11T14:35:30.846Z,15.42
2023-04-11T14:38:02.515Z,15.01
2023-04-11T14:40:34.210Z,15.45
2023-04-11T14:43:05.772Z,15.57
2023-04-11T14:45:37.447Z,15.65
2023-04-11T14:48:09.159Z,16.28
2023-04-11T14:50:40.846Z,15.66
2023-04-11T14:53:12.450Z,15.90
2023-04-11T14:55:44.735Z,16.47
2023-04-11T14:58:16.565Z,16.58
2023-04-11T15:00:49.322Z,17.00
2023-04-11T15:03:21.096Z,16.04
2023-04-11T15:05:53.012Z,16.20
2023-04-11T15:08:24.627Z,16.76
2023-04-11T15:10:56.264Z,15.89
2023-04-11T15:13:27.978Z,15.91
2023-04-11T15:16:01.481Z,16.04
2023-04-11T15:18:33.178Z,15.88
2023-04-11T15:21:05.007Z,17.30
2023-04-11T15:23:36.676Z,17.35
2023-04-11T15:26:08.561Z,17.33
2023-04-11T15:28:40.247Z,16.87
2023-04-11T15:31:11.960Z,15.90
2023-04-11T15:33:43.621Z,16.37
2023-04-11T15:36:15.224Z,15.98
2023-04-11T15:38:49.093Z,15.99
2023-04-11T15:41:20.595Z,15.95
2023-04-11T15:43:52.217Z,16.23
2023-04-11T15:46:24.091Z,16.64
2023-04-11T15:48:55.704Z,16.04
2023-04-11T15:51:27.330Z,16.21
2023-04-11T15:53:59.177Z,15.70
2023-04-11T15:56:31.600Z,15.93
2023-04-11T15:59:03.348Z,15.94
2023-04-11T16:01:34.914Z,16.02
2023-04-11T16:04:06.610Z,15.82
2023-04-11T16:06:38.786Z,15.85
2023-04-11T16:09:10.440Z,16.65
2023-04-11T16:11:42.086Z,17.24
2023-04-11T16:14:13.727Z,16.56
2023-04-11T16:16:45.362Z,16.06
2023-04-11T16:19:16.978Z,16.40
2023-04-11T16:21:48.637Z,16.52
2023-04-11T16:24:20.214Z,17.35
2023-04-11T16:26:51.794Z,16.04
2023-04-11T16:29:23.466Z,15.94
2023-04-11T16:31:55.098Z,15.44
2023-04-11T16:34:29.894Z,16.44
2023-04-11T16:37:04.907Z,16.00
2023-04-11T16:39:36.436Z,15.68
2023-04-11T16:42:08.024Z,15.85
2023-04-11T16:44:39.617Z,15.77
2023-04-11T16:47:11.271Z,14.95
2023-04-11T16:49:44.356Z,15.18
2023-04-11T16:52:16.595Z,14.64
2023-04-11T16:54:48.337Z,14.78
2023-04-11T16:57:19.935Z,14.67
2023-04-11T16:59:51.580Z,14.68
2023-04-11T17:02:23.289Z,15.02
2023-04-11T17:04:54.937Z,14.40
2023-04-11T17:07:26.541Z,14.86
2023-04-11T17:09:58.131Z,14.74
2023-04-11T17:12:29.674Z,14.88
2023-04-11T17:15:01.245Z,14.65
2023-04-11T17:17:33.088Z,14.81
2023-04-11T17:20:06.805Z,14.41
2023-04-11T17:22:42.724Z,14.39
2023-04-11T17:25:14.794Z,14.29
2023-04-11T17:27:46.568Z,14.64
2023-04-11T17:30:18.247Z,14.98
2023-04-11T17:32:50.067Z,14.52
2023-04-11T17:35:21.780Z,14.87
2023-04-11T17:37:54.036Z,14.90
2023-04-11T17:40:25.673Z,15.82
2023-04-11T17:42:57.466Z,15.64
2023-04-11T17:45:29.933Z,15.71
2023-04-11T17:48:02.279Z,15.61
2023-04-11T17:50:34.075Z,15.36
2023-04-11T17:53:05.773Z,15.61
2023-04-11T17:55:37.364Z,15.98
2023-04-11T17:58:43.161Z,15.65
2023-04-11T18:01:14.897Z,15.53
2023-04-11T18:03:46.627Z,15.92
2023-04-11T18:06:18.325Z,16.09
2023-04-11T18:08:51.721Z,15.72
2023-04-11T18:11:23.824Z,15.63
2023-04-11T18:13:55.964Z,15.88
2023-04-11T18:16:27.915Z,16.05
2023-04-11T18:18:59.730Z,15.99
2023-04-11T18:21:31.335Z,15.85
2023-04-11T18:24:03.048Z,15.71
2023-04-11T18:26:34.661Z,15.29
2023-04-11T18:29:06.228Z,15.13
2023-04-11T18:31:37.831Z,15.69
2023-04-11T18:34:09.731Z,15.75
2023-04-11T18:36:41.615Z,15.40
2023-04-11T18:39:13.307Z,14.98
2023-04-11T18:41:45.306Z,15.36
2023-04-11T18:44:17.337Z,15.00
2023-04-11T18:46:51.451Z,15.31
2023-04-11T18:49:23.610Z,14.91
2023-04-11T18:51:55.238Z,15.37
2023-04-11T18:54:26.872Z,14.91
2023-04-11T18:56:59.358Z,15.11
2023-04-11T18:59:33.616Z,14.71
2023-04-11T19:02:06.899Z,15.09
2023-04-11T19:04:38.995Z,15.00
2023-04-11T19:07:10.673Z,15.26
2023-04-11T19:09:43.228Z,15.04
2023-04-11T19:12:14.932Z,15.33
2023-04-11T19:14:46.567Z,15.22
2023-04-11T19:17:18.743Z,14.66
2023-04-11T19:19:53.068Z,13.28
2023-04-11T19:22:24.692Z,13.67
2023-04-11T19:24:56.271Z,13.13
2023-04-11T19:27:27.995Z,13.35
2023-04-11T19:29:59.677Z,12.93
2023-04-11T19:32:32.081Z,12.08
2023-04-11T19:35:07.029Z,11.84
2023-04-11T19:37:39.100Z,11.90
2023-04-11T19:40:11.102Z,11.48
2023-04-11T19:42:44.811Z,11.80
2023-04-11T19:45:16.406Z,11.51
2023-04-11T19:47:48.067Z,11.38
2023-04-11T19:50:19.968Z,11.27
2023-04-11T19:52:55.117Z,11.60
2023-04-11T19:55:27.281Z,11.25
2023-04-11T19:57:58.887Z,11.48
2023-04-11T20:00:30.713Z,11.59
2023-04-11T20:03:02.475Z,11.99
2023-04-11T20:05:34.162Z,12.02
2023-04-11T20:08:05.794Z,11.91
2023-04-11T20:10:38.492Z,12.20
2023-04-11T20:13:10.116Z,12.40
2023-04-11T20:15:41.772Z,12.19
2023-04-11T20:18:13.522Z,12.12
2023-04-11T20:20:45.375Z,11.96
2023-04-11T20:23:16.967Z,12.39
2023-04-11T20:25:48.612Z,12.73
2023-04-11T20:28:20.198Z,13.22
2023-04-11T20:30:51.979Z,13.47
2023-04-11T20:33:23.625Z,13.71
2023-04-11T20:35:55.328Z,13.57
2023-04-11T20:38:26.952Z,13.14
2023-04-11T20:40:58.669Z,13.60
2023-04-11T20:43:31.197Z,13.51
2023-04-11T20:46:04.076Z,14.21
2023-04-11T20:48:35.812Z,14.10
2023-04-11T20:51:07.488Z,13.61
2023-04-11T20:53:39.086Z,13.88
2023-04-11T20:56:10.756Z,13.89
2023-04-11T20:58:42.382Z,13.70
2023-04-11T21:01:14.051Z,13.90
2023-04-11T21:03:46.006Z,13.39
2023-04-11T21:06:17.835Z,13.33
2023-04-11T21:08:49.399Z,13.84
2023-04-11T21:11:21.010Z,13.94
2023-04-11T21:13:52.656Z,13.81
2023-04-11T21:16:24.451Z,13.36
2023-04-11T21:18:56.214Z,13.55
2023-04-11T21:21:27.872Z,13.90
2023-04-11T21:23:59.622Z,13.79
2023-04-11T21:26:31.295Z,13.98
2023-04-11T21:29:02.912Z,13.66
2023-04-11T21:31:34.628Z,13.05
2023-04-11T21:34:06.274Z,12.23
2023-04-11T21:36:37.893Z,12.46
2023-04-11T21:39:09.598Z,12.94
2023-04-11T21:41:47.460Z,13.32
2023-04-11T21:44:23.105Z,13.60
2023-04-11T21:46:58.768Z,13.13
2023-04-11T21:49:31.798Z,13.38
2023-04-11T21:52:03.379Z,13.63
2023-04-11T21:54:35.450Z,13.57
2023-04-11T21:57:07.076Z,13.29
2023-04-11T21:59:38.912Z,12.89
2023-04-11T22:02:10.669Z,12.67
2023-04-11T22:04:51.625Z,12.24
2023-04-11T22:07:27.839Z,12.55
2023-04-11T22:09:59.419Z,12.76
2023-04-11T22:12:31.067Z,12.31
2023-04-11T22:15:03.085Z,11.69
2023-04-11T22:17:34.895Z,11.78
2023-04-11T22:20:06.967Z,12.07
2023-04-11T22:22:38.550Z,11.40
2023-04-11T22:25:10.175Z,11.59
2023-04-11T22:27:41.795Z,12.08
2023-04-11T22:30:14.138Z,12.33
2023-04-11T22:32:45.698Z,11.95
2023-04-11T22:35:17.685Z,12.03
2023-04-11T22:37:49.347Z,11.47
2023-04-11T22:40:21.331Z,11.50
2023-04-11T22:42:53.619Z,11.59
2023-04-11T22:45:25.162Z,11.48
2023-04-11T22:47:56.811Z,11.50
2023-04-11T22:50:28.478Z,11.50
2023-04-11T22:53:00.112Z,12.01
2023-04-11T22:55:32.651Z,12.09
2023-04-11T22:58:04.262Z,12.36
2023-04-11T23:00:35.836Z,12.49
2023-04-11T23:03:07.643Z,12.09
2023-04-11T23:05:39.975Z,11.84
2023-04-11T23:08:11.604Z,12.33
2023-04-11T23:10:43.358Z,12.69
2023-04-11T23:13:15.173Z,13.05
2023-04-11T23:15:46.960Z,12.93
2023-04-11T23:18:19.048Z,12.60
2023-04-11T23:20:50.923Z,12.34
2023-04-11T23:23:22.880Z,12.78
2023-04-11T23:25:54.561Z,13.37
2023-04-11T23:28:26.289Z,12.99
2023-04-11T23:30:58.105Z,13.23
2023-04-11T23:33:29.881Z,13.57
2023-04-11T23:36:01.489Z,13.36
2023-04-11T23:38:33.130Z,13.89
2023-04-11T23:43:56.671Z,13.23
2023-04-11T23:46:28.675Z,13.18
2023-04-11T23:49:00.314Z,13.17
2023-04-11T23:51:31.913Z,13.27
2023-04-11T23:54:03.656Z,13.24
2023-04-11T23:56:35.270Z,13.23
2023-04-11T23:59:06.890Z,13.39
